createdAt,value
2022-09-23T00:00:00.836Z,10.95
2022-09-23T00:02:48.885Z,5.45
2022-09-23T00:05:37.929Z,4.80
2022-09-23T00:08:25.560Z,5.97
2022-09-23T00:11:18.581Z,4.50
2022-09-23T00:14:06.386Z,4.28
2022-09-23T00:16:54.053Z,6.13
2022-09-23T00:19:41.138Z,4.53
2022-09-23T00:22:28.566Z,5.65
2022-09-23T00:25:15.989Z,5.05
2022-09-23T00:28:03.400Z,6.60
2022-09-23T00:30:51.349Z,6.30
2022-09-23T00:33:40.428Z,4.38
2022-09-23T00:36:28.290Z,5.82
2022-09-23T00:39:15.767Z,6.20
2022-09-23T00:42:03.162Z,4.85
2022-09-23T00:44:56.705Z,5.03
2022-09-23T00:47:52.410Z,5.15
2022-09-23T00:50:45.339Z,4.95
2022-09-23T00:53:32.583Z,3.95
2022-09-23T00:56:22.349Z,4.20
2022-09-23T00:59:11.002Z,5.00
2022-09-23T01:02:00.133Z,3.75
2022-09-23T01:04:52.188Z,3.92
2022-09-23T01:07:39.328Z,4.47
2022-09-23T01:10:29.791Z,4.82
2022-09-23T01:13:57.164Z,5.25
2022-09-23T01:17:03.994Z,3.90
2022-09-23T01:20:21.889Z,3.75
2022-09-23T01:23:47.867Z,3.03
2022-09-23T01:26:49.111Z,3.38
2022-09-23T01:29:59.364Z,4.07
2022-09-23T01:33:15.531Z,3.85
2022-09-23T01:36:29.774Z,3.72
2022-09-23T01:39:25.950Z,4.63
2022-09-23T01:42:45.585Z,4.97
2022-09-23T01:45:41.383Z,4.05
2022-09-23T01:48:39.253Z,3.40
2022-09-23T01:51:32.723Z,3.40
2022-09-23T01:54:32.223Z,6.25
2022-09-23T01:57:27.578Z,5.05
2022-09-23T02:00:18.176Z,4.65
2022-09-23T02:03:12.630Z,4.78
2022-09-23T02:06:08.632Z,5.15
2022-09-23T02:09:08.865Z,4.18
2022-09-23T02:12:02.259Z,6.32
2022-09-23T02:14:55.308Z,6.85
2022-09-23T02:17:55.572Z,4.97
2022-09-23T02:20:43.282Z,4.20
2022-09-23T02:23:45.727Z,4.63
2022-09-23T02:26:45.718Z,4.38
2022-09-23T02:29:49.278Z,3.80
2022-09-23T02:32:49.400Z,4.10
2022-09-23T02:35:49.438Z,3.70
2022-09-23T02:38:46.583Z,3.42
2022-09-23T02:41:34.077Z,4.00
2022-09-23T02:44:22.724Z,3.50
2022-09-23T02:47:10.602Z,3.90
2022-09-23T02:49:58.043Z,3.85
2022-09-23T02:52:46.219Z,3.72
2022-09-23T02:55:33.649Z,4.22
2022-09-23T02:58:21.105Z,4.93
2022-09-23T03:01:21.927Z,4.75
2022-09-23T03:04:25.713Z,4.28
2022-09-23T03:07:35.506Z,5.18
2022-09-23T03:10:34.973Z,4.65
2022-09-23T03:13:34.215Z,6.68
2022-09-23T03:16:46.248Z,6.60
2022-09-23T03:19:44.040Z,5.47
2022-09-23T03:22:35.586Z,4.68
2022-09-23T03:25:25.341Z,4.93
2022-09-23T03:28:14.173Z,6.75
2022-09-23T03:31:01.616Z,5.15
2022-09-23T03:33:54.530Z,4.80
2022-09-23T03:36:53.297Z,4.70
2022-09-23T03:39:48.590Z,5.50
2022-09-23T03:42:37.610Z,8.40
2022-09-23T03:45:30.914Z,5.57
2022-09-23T03:48:18.410Z,5.18
2022-09-23T03:51:23.739Z,7.72
2022-09-23T03:54:11.149Z,4.65
2022-09-23T03:56:58.949Z,4.63
2022-09-23T03:59:46.328Z,6.70
2022-09-23T04:02:33.912Z,5.63
2022-09-23T04:05:21.549Z,6.18
2022-09-23T04:08:08.937Z,4.97
2022-09-23T04:11:01.575Z,5.25
2022-09-23T04:13:48.999Z,5.00
2022-09-23T04:16:36.499Z,6.00
2022-09-23T04:19:23.909Z,6.82
2022-09-23T04:22:11.405Z,6.75
2022-09-23T04:24:59.220Z,4.82
2022-09-23T04:27:46.647Z,7.28
2022-09-23T04:30:34.100Z,5.05
2022-09-23T04:33:21.575Z,5.30
2022-09-23T04:36:09.033Z,5.82
2022-09-23T04:38:56.607Z,6.72
2022-09-23T04:41:44.713Z,7.22
2022-09-23T04:44:32.957Z,6.38
2022-09-23T04:47:20.404Z,4.65
2022-09-23T04:50:07.803Z,6.80
2022-09-23T04:52:55.311Z,4.47
2022-09-23T04:55:43.490Z,4.78
2022-09-23T04:58:30.513Z,6.47
2022-09-23T05:01:25.149Z,6.03
2022-09-23T05:04:14.019Z,4.68
2022-09-23T05:07:03.520Z,4.85
2022-09-23T05:09:51.074Z,5.93
2022-09-23T05:12:38.512Z,5.00
2022-09-23T05:15:26.493Z,4.70
2022-09-23T05:18:15.980Z,4.70
2022-09-23T05:21:05.729Z,5.68
2022-09-23T05:23:55.111Z,10.15
2022-09-23T05:26:42.408Z,9.52
2022-09-23T05:29:29.865Z,8.50
2022-09-23T05:32:17.350Z,54.13
2022-09-23T05:35:04.982Z,44.78
2022-09-23T05:37:52.359Z,9.85
2022-09-23T05:40:39.869Z,30.08
2022-09-23T05:43:27.800Z,47.70
2022-09-23T05:46:17.781Z,10.20
2022-09-23T05:49:06.023Z,7.88
2022-09-23T05:51:53.427Z,6.43
2022-09-23T05:54:41.190Z,4.80
2022-09-23T05:57:29.916Z,6.25
2022-09-23T06:00:17.492Z,5.85
2022-09-23T06:03:04.970Z,5.65
2022-09-23T06:05:55.448Z,5.40
2022-09-23T06:08:42.966Z,5.90
2022-09-23T06:11:31.279Z,5.97
2022-09-23T06:14:18.837Z,4.85
2022-09-23T06:17:06.298Z,3.92
2022-09-23T06:19:53.710Z,6.65
2022-09-23T06:22:41.099Z,5.30
2022-09-23T06:25:29.527Z,4.47
2022-09-23T06:28:17.003Z,6.28
2022-09-23T06:31:12.864Z,5.18
2022-09-23T06:34:12.238Z,6.20
2022-09-23T06:37:07.363Z,6.38
2022-09-23T06:39:59.511Z,5.43
2022-09-23T06:42:51.499Z,6.78
2022-09-23T06:45:39.766Z,4.95
2022-09-23T06:48:28.506Z,6.53
2022-09-23T06:51:19.222Z,5.38
2022-09-23T06:54:06.810Z,5.38
2022-09-23T06:56:54.574Z,4.60
2022-09-23T06:59:42.047Z,4.97
2022-09-23T07:02:29.557Z,5.90
2022-09-23T07:05:17.260Z,4.78
2022-09-23T07:08:09.558Z,6.80
2022-09-23T07:10:58.675Z,7.97
2022-09-23T07:13:46.104Z,7.05
2022-09-23T07:16:33.700Z,6.65
2022-09-23T07:19:20.670Z,6.05
2022-09-23T07:22:08.091Z,6.80
2022-09-23T07:24:56.014Z,7.10
2022-09-23T07:27:43.443Z,6.82
2022-09-23T07:30:30.866Z,8.55
2022-09-23T07:33:31.058Z,6.65
2022-09-23T07:36:19.672Z,6.20
2022-09-23T07:39:09.483Z,5.10
2022-09-23T07:41:56.739Z,5.47
2022-09-23T07:44:47.703Z,7.10
2022-09-23T07:47:35.299Z,4.10
2022-09-23T07:50:22.799Z,7.35
2022-09-23T07:53:10.340Z,6.03
2022-09-23T07:55:57.709Z,5.68
2022-09-23T07:58:45.088Z,4.10
2022-09-23T08:01:38.476Z,4.35
2022-09-23T08:04:29.111Z,4.45
2022-09-23T08:07:16.598Z,4.70
2022-09-23T08:10:04.151Z,4.68
2022-09-23T08:12:52.003Z,4.13
2022-09-23T08:15:40.389Z,5.43
2022-09-23T08:18:27.925Z,5.10
2022-09-23T08:21:20.539Z,3.05
2022-09-23T08:24:11.332Z,3.55
2022-09-23T08:26:58.995Z,7.40
2022-09-23T08:29:46.891Z,5.18
2022-09-23T08:32:34.324Z,2.97
2022-09-23T08:35:21.759Z,3.22
2022-09-23T08:38:09.177Z,5.60
2022-09-23T08:41:27.250Z,2.70
2022-09-23T08:44:25.108Z,3.03
2022-09-23T08:47:35.595Z,2.85
2022-09-23T08:50:26.968Z,3.72
2022-09-23T08:53:30.950Z,3.90
2022-09-23T08:56:22.114Z,4.50
2022-09-23T08:59:16.258Z,5.13
2022-09-23T09:02:14.495Z,4.13
2022-09-23T09:05:07.009Z,3.20
2022-09-23T09:07:58.224Z,4.53
2022-09-23T09:10:47.317Z,2.35
2022-09-23T09:13:43.067Z,3.20
2022-09-23T09:17:05.938Z,3.85
2022-09-23T09:20:03.107Z,5.32
2022-09-23T09:22:59.756Z,2.45
2022-09-23T09:25:59.740Z,4.95
2022-09-23T09:29:11.395Z,3.38
2022-09-23T09:32:22.746Z,2.50
2022-09-23T09:35:27.233Z,2.67
2022-09-23T09:38:15.203Z,3.35
2022-09-23T09:41:12.042Z,2.78
2022-09-23T09:44:03.370Z,4.65
2022-09-23T09:47:46.511Z,2.83
2022-09-23T09:50:45.355Z,2.65
2022-09-23T09:53:35.664Z,3.50
2022-09-23T09:56:31.573Z,3.80
2022-09-23T09:59:25.599Z,3.83
2022-09-23T10:02:29.742Z,3.30
2022-09-23T10:05:26.970Z,2.75
2022-09-23T10:08:24.744Z,2.65
2022-09-23T10:11:17.670Z,2.25
2022-09-23T10:14:17.469Z,4.07
2022-09-23T10:17:06.677Z,3.20
2022-09-23T10:20:06.895Z,2.17
2022-09-23T10:22:56.642Z,4.68
2022-09-23T10:25:55.379Z,3.78
2022-09-23T10:28:55.472Z,3.70
2022-09-23T10:31:44.133Z,3.10
2022-09-23T10:34:34.832Z,2.83
2022-09-23T10:37:30.704Z,2.25
2022-09-23T10:40:49.107Z,3.63
2022-09-23T10:44:16.274Z,3.08
2022-09-23T10:47:22.795Z,2.20
2022-09-23T10:50:23.260Z,3.20
2022-09-23T10:53:47.390Z,2.20
2022-09-23T10:56:42.940Z,4.15
2022-09-23T10:59:37.857Z,2.55
2022-09-23T11:03:01.548Z,2.58
2022-09-23T11:06:17.479Z,2.10
2022-09-23T11:09:24.566Z,2.78
2022-09-23T11:12:38.105Z,3.30
2022-09-23T11:15:55.706Z,2.15
2022-09-23T11:18:56.094Z,2.20
2022-09-23T11:22:15.937Z,3.65
2022-09-23T11:25:16.700Z,2.00
2022-09-23T11:28:13.838Z,3.42
2022-09-23T11:31:23.102Z,2.70
2022-09-23T11:34:10.620Z,3.47
2022-09-23T11:37:15.187Z,2.90
2022-09-23T11:40:12.279Z,2.55
2022-09-23T11:42:59.746Z,3.20
2022-09-23T11:45:58.695Z,2.63
2022-09-23T11:49:16.892Z,2.75
2022-09-23T11:52:20.431Z,3.90
2022-09-23T11:55:22.716Z,2.42
2022-09-23T11:58:26.027Z,2.45
2022-09-23T12:01:45.531Z,3.63
2022-09-23T12:04:58.193Z,3.20
2022-09-23T12:07:56.588Z,2.67
2022-09-23T12:11:16.064Z,1.90
2022-09-23T12:14:18.189Z,2.78
2022-09-23T12:17:29.847Z,2.50
2022-09-23T12:20:45.252Z,3.97
2022-09-23T12:24:04.760Z,2.30
2022-09-23T12:26:57.335Z,2.25
2022-09-23T12:29:58.534Z,2.38
2022-09-23T12:32:46.300Z,2.67
2022-09-23T12:35:39.992Z,2.20
2022-09-23T12:38:53.950Z,2.53
2022-09-23T12:41:49.177Z,5.13
2022-09-23T12:44:44.041Z,2.63
2022-09-23T12:47:38.090Z,4.40
2022-09-23T12:50:52.216Z,3.65
2022-09-23T12:53:50.650Z,3.30
2022-09-23T12:56:37.583Z,3.03
2022-09-23T12:59:25.282Z,2.65
2022-09-23T13:02:33.460Z,3.78
2022-09-23T13:05:41.487Z,3.78
2022-09-23T13:08:29.388Z,2.58
2022-09-23T13:11:25.792Z,2.67
2022-09-23T13:14:17.612Z,2.50
2022-09-23T13:17:05.353Z,2.42
2022-09-23T13:20:23.034Z,3.50
2022-09-23T13:23:31.379Z,3.20
2022-09-23T13:26:18.847Z,2.55
2022-09-23T13:29:13.818Z,4.45
2022-09-23T13:32:02.187Z,3.13
2022-09-23T13:35:15.681Z,4.10
2022-09-23T13:38:32.903Z,3.38
2022-09-23T13:41:24.227Z,2.72
2022-09-23T13:44:19.677Z,3.63
2022-09-23T13:47:08.879Z,2.88
2022-09-23T13:49:56.486Z,2.78
2022-09-23T13:52:43.883Z,3.08
2022-09-23T13:55:33.786Z,2.97
2022-09-23T13:58:23.829Z,3.20
2022-09-23T14:01:22.665Z,3.90
2022-09-23T14:04:24.402Z,2.80
2022-09-23T14:07:14.705Z,2.42
2022-09-23T14:10:02.999Z,4.45
2022-09-23T14:12:52.281Z,2.80
2022-09-23T14:15:39.905Z,2.30
2022-09-23T14:18:32.956Z,2.15
2022-09-23T14:21:29.589Z,2.50
2022-09-23T14:24:24.955Z,3.40
2022-09-23T14:27:15.359Z,3.03
2022-09-23T14:30:03.539Z,3.53
2022-09-23T14:32:51.255Z,1.95
2022-09-23T14:35:42.152Z,2.40
2022-09-23T14:38:49.011Z,2.97
2022-09-23T14:41:44.876Z,2.63
2022-09-23T14:44:35.492Z,2.40
2022-09-23T14:47:22.968Z,2.90
2022-09-23T14:50:36.623Z,3.70
2022-09-23T14:53:24.046Z,2.63
2022-09-23T14:56:22.369Z,2.30
2022-09-23T14:59:25.388Z,3.40
2022-09-23T15:02:33.897Z,2.55
2022-09-23T15:05:23.348Z,2.20
2022-09-23T15:08:21.184Z,2.92
2022-09-23T15:11:08.750Z,3.00
2022-09-23T15:13:56.153Z,2.10
2022-09-23T15:16:43.843Z,2.05
2022-09-23T15:19:31.667Z,2.40
2022-09-23T15:22:18.818Z,3.03
2022-09-23T15:25:17.107Z,3.17
2022-09-23T15:28:05.693Z,3.63
2022-09-23T15:30:53.329Z,2.55
2022-09-23T15:33:40.745Z,2.33
2022-09-23T15:36:28.875Z,3.25
2022-09-23T15:39:16.269Z,3.17
2022-09-23T15:42:03.783Z,3.42
2022-09-23T15:44:51.207Z,9.70
2022-09-23T15:47:38.692Z,8.80
2022-09-23T15:50:25.683Z,3.45
2022-09-23T15:53:15.835Z,3.63
2022-09-23T15:56:02.891Z,7.40
2022-09-23T15:58:50.479Z,4.45
2022-09-23T16:01:38.029Z,3.78
2022-09-23T16:04:26.091Z,10.18
2022-09-23T16:07:16.128Z,9.00
2022-09-23T16:10:03.708Z,4.63
2022-09-23T16:12:53.029Z,22.80
2022-09-23T16:15:41.119Z,3.97
2022-09-23T16:18:28.619Z,5.78
2022-09-23T16:21:19.686Z,6.45
2022-09-23T16:24:14.360Z,7.05
2022-09-23T16:27:06.022Z,5.15
2022-09-23T16:29:53.582Z,6.18
2022-09-23T16:32:41.047Z,7.57
2022-09-23T16:35:31.191Z,5.65
2022-09-23T16:38:18.612Z,4.18
2022-09-23T16:41:06.748Z,4.53
2022-09-23T16:43:54.546Z,10.10
2022-09-23T16:46:42.896Z,15.73
2022-09-23T16:49:30.458Z,6.07
2022-09-23T16:52:17.903Z,5.90
2022-09-23T16:55:05.658Z,7.97
2022-09-23T16:57:54.034Z,4.93
2022-09-23T17:01:00.436Z,9.57
2022-09-23T17:03:47.972Z,10.40
2022-09-23T17:06:35.474Z,14.52
2022-09-23T17:09:26.931Z,19.13
2022-09-23T17:12:25.866Z,20.38
2022-09-23T17:15:13.268Z,26.40
2022-09-23T17:18:00.765Z,20.23
2022-09-23T17:21:01.484Z,27.13
2022-09-23T17:23:48.993Z,15.70
2022-09-23T17:26:36.411Z,22.77
2022-09-23T17:29:26.696Z,35.45
2022-09-23T17:32:14.128Z,35.42
2022-09-23T17:35:04.547Z,35.10
2022-09-23T17:37:52.212Z,46.05
2022-09-23T17:40:40.462Z,37.97
2022-09-23T17:43:28.182Z,37.10
2022-09-23T17:46:18.539Z,30.83
2022-09-23T17:49:07.527Z,26.75
2022-09-23T17:51:56.734Z,20.67
2022-09-23T17:54:45.075Z,19.83
2022-09-23T17:57:32.110Z,16.98
2022-09-23T18:00:19.497Z,16.92
2022-09-23T18:03:07.181Z,14.93
2022-09-23T18:05:54.798Z,14.50
2022-09-23T18:08:43.958Z,13.63
2022-09-23T18:11:37.094Z,14.45
2022-09-23T18:14:24.765Z,14.05
2022-09-23T18:17:12.179Z,12.77
2022-09-23T18:19:59.632Z,12.90
2022-09-23T18:22:47.026Z,11.63
2022-09-23T18:25:39.661Z,12.80
2022-09-23T18:28:34.048Z,11.65
2022-09-23T18:31:22.456Z,10.05
2022-09-23T18:34:15.104Z,10.75
2022-09-23T18:37:02.128Z,9.20
2022-09-23T18:39:49.872Z,10.40
2022-09-23T18:42:40.206Z,7.97
2022-09-23T18:45:27.732Z,8.80
2022-09-23T18:48:34.047Z,9.40
2022-09-23T18:51:25.404Z,8.13
2022-09-23T18:54:12.821Z,7.68
2022-09-23T18:57:00.329Z,7.03
2022-09-23T18:59:47.746Z,7.22
2022-09-23T19:02:35.152Z,8.07
2022-09-23T19:05:22.466Z,7.68
2022-09-23T19:08:10.032Z,9.13
2022-09-23T19:10:58.098Z,9.38
2022-09-23T19:13:45.560Z,5.47
2022-09-23T19:16:33.188Z,7.03
2022-09-23T19:19:20.707Z,6.15
2022-09-23T19:22:08.133Z,5.50
2022-09-23T19:24:55.582Z,7.30
2022-09-23T19:27:43.648Z,5.47
2022-09-23T19:30:31.101Z,6.57
2022-09-23T19:33:18.525Z,4.97
2022-09-23T19:36:06.182Z,4.43
2022-09-23T19:38:54.669Z,4.88
2022-09-23T19:41:42.179Z,5.53
2022-09-23T19:44:29.641Z,5.22
2022-09-23T19:47:17.363Z,5.40
2022-09-23T19:50:07.227Z,5.25
2022-09-23T19:52:54.698Z,5.43
2022-09-23T19:55:44.240Z,4.85
2022-09-23T19:58:33.066Z,5.20
2022-09-23T20:01:24.848Z,6.63
2022-09-23T20:04:11.969Z,6.70
2022-09-23T20:06:59.422Z,7.50
2022-09-23T20:09:46.828Z,5.00
2022-09-23T20:12:34.295Z,7.80
2022-09-23T20:15:23.187Z,7.65
2022-09-23T20:18:10.680Z,5.00
2022-09-23T20:20:58.287Z,4.57
2022-09-23T20:23:45.857Z,7.28
2022-09-23T20:26:52.123Z,12.30
2022-09-23T20:29:39.173Z,15.88
2022-09-23T20:32:29.533Z,15.15
2022-09-23T20:35:16.966Z,32.22
2022-09-23T20:38:08.000Z,29.98
2022-09-23T20:40:59.834Z,80.45
2022-09-23T20:43:48.200Z,65.38
2022-09-23T20:46:35.848Z,65.68
2022-09-23T20:49:23.497Z,27.25
2022-09-23T20:52:11.732Z,7.57
2022-09-23T20:54:59.904Z,7.40
2022-09-23T20:57:48.556Z,40.38
2022-09-23T21:00:36.045Z,35.00
2022-09-23T21:03:24.073Z,16.00
2022-09-23T21:06:13.758Z,12.75
2022-09-23T21:09:01.649Z,44.85
2022-09-23T21:11:49.197Z,11.40
2022-09-23T21:14:36.313Z,7.63
2022-09-23T21:17:23.913Z,9.57
2022-09-23T21:20:11.450Z,6.93
2022-09-23T21:22:58.886Z,7.32
2022-09-23T21:25:46.273Z,6.10
2022-09-23T21:28:35.378Z,5.20
2022-09-23T21:31:27.798Z,5.95
2022-09-23T21:34:15.911Z,5.15
2022-09-23T21:37:03.913Z,5.90
2022-09-23T21:40:09.985Z,6.07
2022-09-23T21:43:00.290Z,5.00
2022-09-23T21:45:47.690Z,5.53
2022-09-23T21:48:41.278Z,5.90
2022-09-23T21:51:31.340Z,5.65
2022-09-23T21:54:19.116Z,6.07
2022-09-23T21:57:06.532Z,6.20
2022-09-23T21:59:54.128Z,5.57
2022-09-23T22:02:41.101Z,7.43
2022-09-23T22:05:28.546Z,11.10
2022-09-23T22:08:16.003Z,7.03
2022-09-23T22:11:05.568Z,6.75
2022-09-23T22:13:53.503Z,6.43
2022-09-23T22:16:41.681Z,7.13
2022-09-23T22:19:35.142Z,7.72
2022-09-23T22:22:23.039Z,6.85
2022-09-23T22:25:12.524Z,7.85
2022-09-23T22:28:18.505Z,6.20
2022-09-23T22:31:25.011Z,6.55
2022-09-23T22:34:37.731Z,6.72
2022-09-23T22:37:28.133Z,5.97
2022-09-23T22:40:15.878Z,6.40
2022-09-23T22:43:03.462Z,5.82
2022-09-23T22:45:51.517Z,6.03
2022-09-23T22:48:38.989Z,6.32
2022-09-23T22:51:26.773Z,6.03
2022-09-23T22:54:14.609Z,6.80
2022-09-23T22:57:04.138Z,6.75
2022-09-23T22:59:51.793Z,6.70
2022-09-23T23:02:39.904Z,6.50
2022-09-23T23:05:27.523Z,6.68
2022-09-23T23:08:17.106Z,6.63
2022-09-23T23:11:10.035Z,7.75
2022-09-23T23:14:01.297Z,6.80
2022-09-23T23:16:49.249Z,7.07
2022-09-23T23:19:37.065Z,6.30
2022-09-23T23:22:27.164Z,8.38
2022-09-23T23:25:14.733Z,9.27
2022-09-23T23:28:02.396Z,6.75
2022-09-23T23:30:49.777Z,6.88
2022-09-23T23:33:37.283Z,7.00
2022-09-23T23:36:24.775Z,8.23
2022-09-23T23:39:12.823Z,8.48
2022-09-23T23:42:00.775Z,8.32
2022-09-23T23:44:48.237Z,7.10
2022-09-23T23:47:35.890Z,6.70
2022-09-23T23:50:23.415Z,6.45
2022-09-23T23:53:11.852Z,7.03
2022-09-23T23:56:02.784Z,7.72
2022-09-23T23:58:57.393Z,7.18
